Time;durP1;ratioP1;P1;durP2;ratioP2;P2;SDS_P1;SDS_P2;PMS_P1;PMS_P2;Temp;Humidity;BMP_temperature;BMP_pressure;BME280_temperature;BME280_humidity;BME280_pressure;Samples;Min_cycle;Max_cycle;Signal;HPM_P1;HPM_P2
2023/11/29 00:00:37;;;;;;;22.50;12.10;;;1.60;99.90;;;;;;4947255;28;87924;-74
2023/11/29 00:03:03;;;;;;;23.33;11.90;;;1.60;99.90;;;;;;4928562;28;92905;-74
2023/11/29 00:05:29;;;;;;;21.67;11.10;;;1.60;99.90;;;;;;4929637;28;93282;-74
2023/11/29 00:07:54;;;;;;;22.25;11.35;;;1.60;99.90;;;;;;4947429;28;87474;-74
2023/11/29 00:10:22;;;;;;;20.17;11.15;;;1.70;99.90;;;;;;4947426;28;88220;-74
2023/11/29 00:12:47;;;;;;;22.58;11.77;;;1.70;99.90;;;;;;4929106;28;91725;-74
2023/11/29 00:15:13;;;;;;;24.98;12.63;;;1.70;99.90;;;;;;4930651;28;91467;-74
2023/11/29 00:17:40;;;;;;;22.27;11.27;;;1.70;99.90;;;;;;4930700;28;87632;-74
2023/11/29 00:20:06;;;;;;;21.23;11.93;;;1.70;99.90;;;;;;4946093;28;89483;-74
2023/11/29 00:22:31;;;;;;;22.83;11.00;;;1.80;99.90;;;;;;4946703;28;88663;-74
2023/11/29 00:24:57;;;;;;;24.35;12.02;;;1.80;99.90;;;;;;4948434;28;87813;-74
2023/11/29 00:27:23;;;;;;;24.65;11.93;;;1.80;99.90;;;;;;4927613;28;88535;-74
2023/11/29 00:29:48;;;;;;;24.63;11.77;;;1.80;99.90;;;;;;4929359;28;89198;-74
2023/11/29 00:32:14;;;;;;;21.48;11.50;;;1.90;99.90;;;;;;4930221;28;90853;-74
2023/11/29 00:34:39;;;;;;;22.00;11.60;;;1.90;99.90;;;;;;4931026;28;91794;-74
2023/11/29 00:37:05;;;;;;;25.80;11.98;;;1.90;99.90;;;;;;4931695;28;88095;-74
2023/11/29 00:39:31;;;;;;;26.75;12.45;;;1.90;99.90;;;;;;4928835;28;91059;-74
2023/11/29 00:41:57;;;;;;;25.08;12.82;;;1.90;99.90;;;;;;4928112;28;91961;-74
2023/11/29 00:44:22;;;;;;;24.10;11.88;;;1.90;99.90;;;;;;4948741;28;88071;-74
2023/11/29 00:46:48;;;;;;;23.75;12.07;;;1.90;99.90;;;;;;4927315;28;87632;-74
2023/11/29 00:49:17;;;;;;;24.60;12.27;;;2.00;99.90;;;;;;4928521;28;89618;-74
2023/11/29 00:51:42;;;;;;;26.20;11.93;;;2.00;99.90;;;;;;4929595;28;92287;-75
2023/11/29 00:54:08;;;;;;;21.58;10.95;;;2.00;99.90;;;;;;4947307;28;89448;-74
2023/11/29 00:56:34;;;;;;;25.02;12.10;;;2.00;99.90;;;;;;4929401;28;87812;-74
2023/11/29 00:59:00;;;;;;;24.23;11.60;;;2.00;99.90;;;;;;4945293;28;87530;-74
2023/11/29 01:01:26;;;;;;;20.80;11.15;;;2.00;99.90;;;;;;4929717;28;90867;-74
2023/11/29 01:03:51;;;;;;;22.35;11.13;;;2.00;99.90;;;;;;4927845;28;91161;-74
2023/11/29 01:06:17;;;;;;;26.38;11.52;;;2.10;99.90;;;;;;4930487;28;87448;-74
2023/11/29 01:08:43;;;;;;;20.13;10.57;;;2.10;99.90;;;;;;4927588;28;90521;-74
2023/11/29 01:11:09;;;;;;;22.08;11.20;;;2.10;99.90;;;;;;4928428;28;91168;-74
2023/11/29 01:13:34;;;;;;;23.90;11.15;;;2.20;99.90;;;;;;4944598;28;87676;-74
2023/11/29 01:16:00;;;;;;;21.73;11.15;;;2.20;99.90;;;;;;4928543;28;88521;-74
2023/11/29 01:18:27;;;;;;;22.70;11.20;;;2.20;99.90;;;;;;4928289;28;90845;-74
2023/11/29 01:20:54;;;;;;;24.55;12.65;;;2.20;99.90;;;;;;4928980;28;91508;-74
2023/11/29 01:23:19;;;;;;;23.73;11.93;;;2.20;99.90;;;;;;4929016;28;89950;-74
2023/11/29 01:25:45;;;;;;;24.67;11.73;;;2.20;99.90;;;;;;4929694;28;88565;-74
2023/11/29 01:28:10;;;;;;;20.52;11.40;;;2.20;99.90;;;;;;4944923;28;88084;-74
2023/11/29 01:30:36;;;;;;;24.63;12.23;;;2.10;99.90;;;;;;4927379;28;91481;-74
2023/11/29 01:33:02;;;;;;;23.58;12.48;;;2.10;99.90;;;;;;4947142;28;88162;-74
2023/11/29 01:35:28;;;;;;;25.65;12.98;;;2.10;99.90;;;;;;4931407;28;87636;-74
2023/11/29 01:37:54;;;;;;;23.88;11.98;;;2.00;99.90;;;;;;4945783;28;87572;-74
2023/11/29 01:40:20;;;;;;;27.13;12.68;;;2.00;99.90;;;;;;4927083;28;93420;-74
2023/11/29 01:42:45;;;;;;;26.13;11.10;;;2.00;99.90;;;;;;4927157;28;90928;-75
2023/11/29 01:45:11;;;;;;;24.73;12.48;;;1.90;99.90;;;;;;4946148;28;87421;-75
2023/11/29 01:47:38;;;;;;;25.25;12.68;;;1.90;99.90;;;;;;4930140;28;90566;-74
2023/11/29 01:50:04;;;;;;;25.90;11.25;;;1.90;99.90;;;;;;4927273;28;90218;-74
2023/11/29 01:52:34;;;;;;;25.92;13.50;;;1.80;99.90;;;;;;4944084;28;89627;-74
2023/11/29 01:55:01;;;;;;;27.08;13.00;;;1.80;99.90;;;;;;4926867;28;87559;-74
2023/11/29 01:57:27;;;;;;;28.08;11.88;;;1.80;99.90;;;;;;4944967;28;87150;-74
2023/11/29 01:59:53;;;;;;;24.95;12.52;;;1.80;99.90;;;;;;4926263;28;90828;-74
2023/11/29 02:02:19;;;;;;;25.20;10.75;;;1.80;99.90;;;;;;4947003;28;88393;-74
2023/11/29 02:04:45;;;;;;;26.75;12.82;;;1.80;99.90;;;;;;4925593;28;88375;-74
2023/11/29 02:07:12;;;;;;;23.17;11.32;;;1.80;99.90;;;;;;4929887;28;91050;-74
2023/11/29 02:09:41;;;;;;;27.60;12.32;;;1.70;99.90;;;;;;4945574;28;88897;-74
2023/11/29 02:12:09;;;;;;;23.73;11.07;;;1.70;99.90;;;;;;4930190;28;91421;-74
2023/11/29 02:14:42;;;;;;;24.65;10.52;;;1.70;99.90;;;;;;4926240;28;87449;-74
2023/11/29 02:17:08;;;;;;;23.92;12.15;;;1.70;99.90;;;;;;4944740;28;88200;-74
2023/11/29 02:19:34;;;;;;;22.13;10.73;;;1.70;99.90;;;;;;4927657;28;91310;-74
2023/11/29 02:22:00;;;;;;;27.85;10.85;;;1.70;99.90;;;;;;4928870;28;90490;-74
2023/11/29 02:24:32;;;;;;;22.90;10.55;;;1.70;99.90;;;;;;4943784;28;87906;-74
2023/11/29 02:26:59;;;;;;;21.80;11.10;;;1.80;99.90;;;;;;4927119;28;89240;-74
2023/11/29 02:29:25;;;;;;;25.95;10.20;;;1.80;99.90;;;;;;4928057;28;92498;-74
2023/11/29 02:31:50;;;;;;;23.92;10.75;;;1.80;99.90;;;;;;4945545;28;89287;-74
2023/11/29 02:34:16;;;;;;;23.73;11.88;;;1.80;99.90;;;;;;4924980;28;87645;-74
2023/11/29 02:36:42;;;;;;;24.92;10.93;;;1.80;99.90;;;;;;4945001;28;87662;-74
2023/11/29 02:39:09;;;;;;;22.65;11.00;;;1.80;99.90;;;;;;4945802;28;88380;-74
2023/11/29 02:41:38;;;;;;;26.50;12.00;;;1.80;99.90;;;;;;4929002;28;91997;-74
2023/11/29 02:44:06;;;;;;;21.65;10.50;;;1.80;99.90;;;;;;4926349;28;87479;-74
2023/11/29 02:46:32;;;;;;;24.58;10.73;;;1.80;99.90;;;;;;4943902;28;86936;-74
2023/11/29 02:48:58;;;;;;;26.50;11.73;;;1.80;99.90;;;;;;4945631;28;87938;-74
2023/11/29 02:51:24;;;;;;;23.10;11.20;;;1.90;99.90;;;;;;4943599;28;91644;-74
2023/11/29 02:53:50;;;;;;;25.00;11.32;;;1.90;99.90;;;;;;4928926;28;89412;-74
2023/11/29 02:56:16;;;;;;;28.30;12.32;;;1.90;99.90;;;;;;4930241;28;90224;-74
2023/11/29 02:58:41;;;;;;;25.27;11.73;;;1.90;99.90;;;;;;4949237;28;88802;-74
2023/11/29 03:01:07;;;;;;;24.17;12.00;;;1.90;99.90;;;;;;4931297;28;90582;-74
2023/11/29 03:03:33;;;;;;;24.73;11.52;;;2.00;99.90;;;;;;4930083;28;87923;-74
2023/11/29 03:05:59;;;;;;;25.98;11.70;;;2.00;99.90;;;;;;4947162;28;87635;-74
2023/11/29 03:08:24;;;;;;;26.52;12.50;;;2.00;99.90;;;;;;4933048;28;91290;-74
2023/11/29 03:10:51;;;;;;;23.05;12.27;;;2.10;99.90;;;;;;4930575;28;91421;-74
2023/11/29 03:13:17;;;;;;;26.13;12.70;;;2.10;99.90;;;;;;4945551;28;87195;-74
2023/11/29 03:15:42;;;;;;;26.10;11.85;;;2.10;99.90;;;;;;4947353;28;87415;-74
2023/11/29 03:18:08;;;;;;;28.13;11.13;;;2.20;99.90;;;;;;4927665;28;93085;-75
2023/11/29 03:20:34;;;;;;;26.25;11.60;;;2.20;99.90;;;;;;4948042;28;89851;-74
2023/11/29 03:22:59;;;;;;;25.77;11.50;;;2.20;99.90;;;;;;4929073;28;87537;-74
2023/11/29 03:25:25;;;;;;;29.35;12.10;;;2.20;99.90;;;;;;4949140;28;88025;-74
2023/11/29 03:27:50;;;;;;;29.20;12.23;;;2.30;99.90;;;;;;4929856;28;91632;-74
2023/11/29 03:30:16;;;;;;;27.40;12.75;;;2.30;99.90;;;;;;4931033;28;91631;-74
2023/11/29 03:32:42;;;;;;;26.02;12.10;;;2.30;99.90;;;;;;4931466;28;87679;-74
2023/11/29 03:35:08;;;;;;;21.67;10.52;;;2.30;99.90;;;;;;4931576;28;90843;-74
2023/11/29 03:37:33;;;;;;;23.65;10.88;;;2.30;99.90;;;;;;4948083;28;89132;-74
2023/11/29 03:39:59;;;;;;;24.85;11.23;;;2.30;99.90;;;;;;4946665;28;88335;-74
2023/11/29 03:42:24;;;;;;;24.50;11.20;;;2.40;99.90;;;;;;4928607;28;88729;-74
2023/11/29 03:44:50;;;;;;;22.00;10.40;;;2.40;99.90;;;;;;4950034;28;87369;-74
2023/11/29 03:47:16;;;;;;;24.27;11.25;;;2.40;99.90;;;;;;4932329;28;91906;-74
2023/11/29 03:49:41;;;;;;;25.02;10.65;;;2.50;99.90;;;;;;4929242;28;92012;-74
2023/11/29 03:52:07;;;;;;;28.75;11.80;;;2.50;99.90;;;;;;4948427;28;87920;-74
2023/11/29 03:54:33;;;;;;;26.75;10.55;;;2.50;99.90;;;;;;4931110;28;90848;-74
2023/11/29 03:56:58;;;;;;;22.85;10.25;;;2.60;99.90;;;;;;4948714;28;88859;-74
2023/11/29 03:59:24;;;;;;;20.55;10.60;;;2.60;99.90;;;;;;4930483;28;91252;-74
2023/11/29 04:01:49;;;;;;;28.13;10.48;;;2.60;99.90;;;;;;4946803;28;87518;-74
2023/11/29 04:04:15;;;;;;;25.77;10.75;;;2.70;99.90;;;;;;4930246;28;90464;-74
2023/11/29 04:06:41;;;;;;;19.77;10.23;;;2.70;99.90;;;;;;4948011;28;89671;-74
2023/11/29 04:09:06;;;;;;;26.05;10.93;;;2.70;99.90;;;;;;4945863;28;88798;-75
2023/11/29 04:11:32;;;;;;;24.92;11.43;;;2.70;99.90;;;;;;4932910;28;87576;-74
2023/11/29 04:13:58;;;;;;;24.15;10.63;;;2.70;99.90;;;;;;4946584;28;87006;-74
2023/11/29 04:16:25;;;;;;;23.98;10.65;;;2.70;99.90;;;;;;4929400;28;90580;-74
2023/11/29 04:18:52;;;;;;;21.90;9.55;;;2.70;99.90;;;;;;4929721;28;91477;-75
2023/11/29 04:21:28;;;;;;;28.23;10.50;;;2.70;99.90;;;;;;4947643;28;87495;-74
2023/11/29 04:23:55;;;;;;;22.85;11.15;;;2.60;99.90;;;;;;4928253;28;90248;-74
2023/11/29 04:26:27;;;;;;;22.90;9.93;;;2.60;99.90;;;;;;4948162;28;89203;-74
2023/11/29 04:28:52;;;;;;;24.30;9.80;;;2.60;99.90;;;;;;4950552;28;87642;-74
2023/11/29 04:31:18;;;;;;;22.95;9.77;;;2.70;99.90;;;;;;4931603;28;89544;-74
2023/11/29 04:33:44;;;;;;;21.52;9.70;;;2.60;99.90;;;;;;4947165;28;87646;-74
2023/11/29 04:36:11;;;;;;;19.10;8.25;;;2.70;99.90;;;;;;4929410;28;92396;-74
2023/11/29 04:38:39;;;;;;;23.75;9.95;;;2.70;99.90;;;;;;4929962;28;90844;-74
2023/11/29 04:41:05;;;;;;;22.38;9.85;;;2.70;99.90;;;;;;4947997;28;87725;-75
2023/11/29 04:43:31;;;;;;;19.67;9.13;;;2.70;99.90;;;;;;4946540;28;87831;-74
2023/11/29 04:45:57;;;;;;;20.63;9.25;;;2.80;99.90;;;;;;4930863;28;91515;-74
2023/11/29 04:48:23;;;;;;;21.27;9.55;;;2.80;99.90;;;;;;4947592;28;87987;-75
2023/11/29 04:50:49;;;;;;;20.85;9.23;;;2.80;99.90;;;;;;4929280;28;87880;-74
2023/11/29 04:53:14;;;;;;;20.60;9.00;;;2.80;99.90;;;;;;4930050;28;89948;-74
2023/11/29 04:55:40;;;;;;;21.98;9.07;;;2.90;99.90;;;;;;4946369;28;89499;-74
2023/11/29 04:58:05;;;;;;;22.95;9.55;;;2.90;99.90;;;;;;4947103;28;89852;-74
2023/11/29 05:00:31;;;;;;;22.25;8.75;;;2.90;99.90;;;;;;4930398;28;87146;-74
2023/11/29 05:02:57;;;;;;;17.27;8.50;;;2.90;99.90;;;;;;4931204;28;90578;-74
2023/11/29 05:05:23;;;;;;;26.00;8.88;;;3.00;99.90;;;;;;4928623;28;91606;-74
2023/11/29 05:07:49;;;;;;;18.17;9.07;;;3.00;99.90;;;;;;4946385;28;88320;-75
2023/11/29 05:10:14;;;;;;;24.42;9.45;;;3.00;99.90;;;;;;4948001;28;87361;-75
2023/11/29 05:12:41;;;;;;;20.10;9.15;;;3.00;99.90;;;;;;4930026;28;90176;-74
2023/11/29 05:15:07;;;;;;;18.38;9.65;;;2.90;99.90;;;;;;4928865;28;90304;-75
2023/11/29 05:17:33;;;;;;;22.27;10.00;;;2.90;99.90;;;;;;4946038;28;87827;-74
2023/11/29 05:19:59;;;;;;;20.15;10.18;;;2.90;99.90;;;;;;4928121;28;88365;-75
2023/11/29 05:22:25;;;;;;;28.55;10.13;;;2.90;99.90;;;;;;4928765;28;90438;-75
2023/11/29 05:24:50;;;;;;;22.58;10.10;;;2.80;99.90;;;;;;4936921;28;91629;-75
2023/11/29 05:27:19;;;;;;;23.70;10.13;;;2.80;99.90;;;;;;4928349;28;90912;-75
2023/11/29 05:29:45;;;;;;;22.38;9.93;;;2.80;99.90;;;;;;4929984;28;87499;-75
2023/11/29 05:32:10;;;;;;;22.75;10.85;;;2.80;99.90;;;;;;4928946;28;97842;-75
2023/11/29 05:34:36;;;;;;;22.50;10.40;;;2.80;99.90;;;;;;4936246;28;91937;-75
2023/11/29 05:37:02;;;;;;;25.38;10.70;;;2.80;99.90;;;;;;4928067;28;91472;-75
2023/11/29 05:39:27;;;;;;;20.05;10.50;;;2.80;99.90;;;;;;4929638;28;87691;-75
2023/11/29 05:41:54;;;;;;;24.98;10.85;;;2.80;99.90;;;;;;4930173;28;89434;-75
2023/11/29 05:44:20;;;;;;;27.20;10.02;;;2.80;99.90;;;;;;4944842;28;88239;-74
2023/11/29 05:46:46;;;;;;;23.95;10.32;;;2.80;99.90;;;;;;4927795;28;92327;-74
2023/11/29 05:49:11;;;;;;;22.75;9.43;;;2.80;99.90;;;;;;4930359;28;87466;-74
2023/11/29 05:51:37;;;;;;;17.13;8.48;;;2.80;99.90;;;;;;4948202;28;88142;-74
2023/11/29 05:54:03;;;;;;;21.63;9.32;;;2.80;99.90;;;;;;4946873;28;88207;-74
2023/11/29 05:56:29;;;;;;;17.98;8.73;;;2.80;99.90;;;;;;4947041;28;88113;-75
2023/11/29 05:58:54;;;;;;;19.38;8.45;;;2.80;99.90;;;;;;4928739;28;87936;-75
2023/11/29 06:01:20;;;;;;;25.65;9.95;;;2.70;99.90;;;;;;4929317;28;90851;-74
2023/11/29 06:03:46;;;;;;;22.88;9.75;;;2.70;99.90;;;;;;4947727;28;88714;-74
2023/11/29 06:06:13;;;;;;;20.33;9.98;;;2.70;99.90;;;;;;4929340;28;91695;-74
2023/11/29 06:08:40;;;;;;;20.10;9.30;;;2.60;99.90;;;;;;4928608;28;88964;-74
2023/11/29 06:11:07;;;;;;;19.77;8.77;;;2.60;99.90;;;;;;4927593;28;90332;-74
2023/11/29 06:13:33;;;;;;;21.42;9.70;;;2.60;99.90;;;;;;4930618;28;91509;-75
2023/11/29 06:15:59;;;;;;;21.60;9.25;;;2.60;99.90;;;;;;4947014;28;88501;-74
2023/11/29 06:18:25;;;;;;;18.27;9.23;;;2.50;99.90;;;;;;4928498;28;87364;-74
2023/11/29 06:20:51;;;;;;;16.58;8.48;;;2.50;99.90;;;;;;4928420;28;89502;-75
2023/11/29 06:23:17;;;;;;;24.73;8.73;;;2.50;99.90;;;;;;4920807;28;91348;-75
2023/11/29 06:25:43;;;;;;;17.15;8.43;;;2.50;99.90;;;;;;4928274;28;91326;-74
2023/11/29 06:28:09;;;;;;;19.50;9.38;;;2.50;99.90;;;;;;4932712;28;87572;-74
2023/11/29 06:30:34;;;;;;;19.85;8.95;;;2.40;99.90;;;;;;4949264;28;87863;-75
2023/11/29 06:33:00;;;;;;;22.55;10.32;;;2.40;99.90;;;;;;4930556;28;92977;-74
2023/11/29 06:35:26;;;;;;;16.73;9.18;;;2.40;99.90;;;;;;4933187;28;91788;-74
2023/11/29 06:37:51;;;;;;;15.77;8.50;;;2.40;99.90;;;;;;4930586;28;87542;-74
2023/11/29 06:40:17;;;;;;;21.45;10.20;;;2.40;99.90;;;;;;4932791;28;90270;-74
2023/11/29 06:42:43;;;;;;;22.50;8.70;;;2.40;99.90;;;;;;4948533;28;88183;-74
2023/11/29 06:45:12;;;;;;;20.25;8.18;;;2.30;99.90;;;;;;4931201;28;91172;-74
2023/11/29 06:47:38;;;;;;;18.65;8.95;;;2.30;99.90;;;;;;4949997;28;87779;-74
2023/11/29 06:50:04;;;;;;;18.98;8.80;;;2.30;99.90;;;;;;4951752;28;88336;-75
2023/11/29 06:52:31;;;;;;;16.55;8.48;;;2.30;99.90;;;;;;4931602;28;91449;-75
2023/11/29 06:54:57;;;;;;;21.98;8.32;;;2.30;99.90;;;;;;4930506;28;90705;-74
2023/11/29 06:57:23;;;;;;;17.20;8.25;;;2.30;99.90;;;;;;4933217;28;88854;-75
2023/11/29 06:59:49;;;;;;;17.73;8.80;;;2.30;99.90;;;;;;4931493;28;90591;-74
2023/11/29 07:02:14;;;;;;;22.38;9.82;;;2.30;99.90;;;;;;4931817;28;91683;-75
2023/11/29 07:04:43;;;;;;;20.00;8.35;;;2.20;99.90;;;;;;4949851;28;88685;-74
2023/11/29 07:07:09;;;;;;;20.48;9.38;;;2.20;99.90;;;;;;4947152;28;87633;-74
2023/11/29 07:09:35;;;;;;;16.95;8.65;;;2.20;99.90;;;;;;4930920;28;90927;-74
2023/11/29 07:12:01;;;;;;;16.73;8.88;;;2.20;99.90;;;;;;4932611;28;91580;-74
2023/11/29 07:14:27;;;;;;;23.60;8.82;;;2.20;99.90;;;;;;4949490;28;88453;-74
2023/11/29 07:16:52;;;;;;;24.08;9.40;;;2.20;99.90;;;;;;4932071;28;87484;-75
2023/11/29 07:19:19;;;;;;;19.85;8.20;;;2.20;99.90;;;;;;4949679;28;87773;-75
2023/11/29 07:21:44;;;;;;;16.75;9.07;;;2.20;99.90;;;;;;4947743;28;89120;-74
2023/11/29 07:24:10;;;;;;;17.27;8.23;;;2.30;99.90;;;;;;4929450;28;91283;-75
2023/11/29 07:26:36;;;;;;;21.23;8.55;;;2.30;99.90;;;;;;4950029;28;87486;-75
2023/11/29 07:29:03;;;;;;;15.93;9.50;;;2.30;99.90;;;;;;4931776;28;90071;-74
2023/11/29 07:31:29;;;;;;;17.83;8.30;;;2.30;99.90;;;;;;4949333;28;87981;-74
2023/11/29 07:33:56;;;;;;;21.15;9.05;;;2.30;99.90;;;;;;4930665;28;91261;-74
2023/11/29 07:36:22;;;;;;;24.17;8.70;;;2.40;99.90;;;;;;4949002;28;87718;-74
2023/11/29 07:38:48;;;;;;;21.85;8.43;;;2.40;99.90;;;;;;4947927;28;87461;-75
2023/11/29 07:41:15;;;;;;;20.85;9.43;;;2.40;99.90;;;;;;4931800;28;91101;-75
2023/11/29 07:43:41;;;;;;;20.33;9.48;;;2.50;99.90;;;;;;4948318;28;88652;-75
2023/11/29 07:46:07;;;;;;;16.70;8.40;;;2.50;99.90;;;;;;4932000;28;88689;-74
2023/11/29 07:48:33;;;;;;;21.88;8.95;;;2.60;99.90;;;;;;4930704;28;90575;-75
2023/11/29 07:50:59;;;;;;;20.05;8.80;;;2.60;99.90;;;;;;4923942;28;91937;-74
2023/11/29 07:53:25;;;;;;;19.20;9.32;;;2.60;99.90;;;;;;4931859;28;90247;-75
2023/11/29 07:55:51;;;;;;;19.80;9.45;;;2.60;99.90;;;;;;4931594;28;87591;-75
2023/11/29 07:58:17;;;;;;;18.10;9.02;;;2.60;99.90;;;;;;4932466;28;90935;-75
2023/11/29 08:00:42;;;;;;;18.40;9.27;;;2.70;99.90;;;;;;4930350;28;92120;-75
2023/11/29 08:03:08;;;;;;;18.98;8.52;;;2.70;99.90;;;;;;4948606;28;87883;-75
2023/11/29 08:05:35;;;;;;;17.85;8.98;;;2.70;99.90;;;;;;4932149;28;88270;-75
2023/11/29 08:08:02;;;;;;;20.73;9.52;;;2.70;99.90;;;;;;4947533;28;87697;-75
2023/11/29 08:10:29;;;;;;;20.50;8.68;;;2.70;99.90;;;;;;4929370;28;92142;-75
2023/11/29 08:12:54;;;;;;;17.42;9.40;;;2.70;99.90;;;;;;4947408;28;89525;-75
2023/11/29 08:15:20;;;;;;;18.05;9.20;;;2.70;99.90;;;;;;4947544;28;88124;-74
2023/11/29 08:17:46;;;;;;;17.48;8.45;;;2.70;99.90;;;;;;4928749;28;90739;-75
2023/11/29 08:20:12;;;;;;;18.60;8.55;;;2.70;99.90;;;;;;4932807;28;91354;-74
2023/11/29 08:22:38;;;;;;;22.85;8.80;;;2.80;99.90;;;;;;4930810;28;91578;-75
2023/11/29 08:25:04;;;;;;;17.85;7.80;;;2.80;99.90;;;;;;4929265;28;88132;-75
2023/11/29 08:27:29;;;;;;;20.23;9.27;;;2.90;99.90;;;;;;4947422;28;86924;-75
2023/11/29 08:29:55;;;;;;;17.50;8.88;;;2.90;99.90;;;;;;4949715;28;87598;-75
2023/11/29 08:32:21;;;;;;;17.25;9.18;;;3.00;99.90;;;;;;4950063;28;88059;-75
2023/11/29 08:34:46;;;;;;;17.85;9.50;;;3.00;99.90;;;;;;4938142;28;88948;-74
2023/11/29 08:37:12;;;;;;;18.48;9.15;;;3.00;99.90;;;;;;4931307;28;91188;-75
2023/11/29 08:39:37;;;;;;;21.42;8.77;;;3.10;99.90;;;;;;4922492;28;91880;-74
2023/11/29 08:42:03;;;;;;;19.60;9.20;;;3.10;99.90;;;;;;4931712;28;90203;-77
2023/11/29 08:44:31;;;;;;;20.15;9.25;;;3.10;99.90;;;;;;4932066;28;87577;-75
2023/11/29 08:46:57;;;;;;;18.38;8.73;;;3.10;99.90;;;;;;4930918;28;90247;-75
2023/11/29 08:49:23;;;;;;;16.83;8.75;;;3.10;99.90;;;;;;4929483;28;91856;-75
2023/11/29 08:51:48;;;;;;;20.83;8.93;;;3.10;99.90;;;;;;4948569;28;88559;-75
2023/11/29 08:54:15;;;;;;;16.77;8.23;;;3.10;99.90;;;;;;4930268;28;87567;-74
2023/11/29 08:56:41;;;;;;;26.65;9.40;;;3.20;99.90;;;;;;4930124;28;90473;-75
2023/11/29 08:59:07;;;;;;;16.25;8.63;;;3.20;99.90;;;;;;4926568;28;92074;-76
2023/11/29 09:01:32;;;;;;;17.15;8.32;;;3.10;99.90;;;;;;4945949;28;87774;-74
2023/11/29 09:03:59;;;;;;;21.38;8.50;;;3.10;99.90;;;;;;4948352;28;87301;-78
2023/11/29 09:06:24;;;;;;;16.38;8.73;;;3.20;99.90;;;;;;4948485;28;87737;-75
2023/11/29 09:08:50;;;;;;;15.50;7.85;;;3.20;99.90;;;;;;4946649;28;87680;-75
2023/11/29 09:11:16;;;;;;;13.43;7.25;;;3.20;99.90;;;;;;4931516;28;89876;-75
2023/11/29 09:13:47;;;;;;;17.77;7.97;;;3.20;99.90;;;;;;4925284;28;87804;-77
2023/11/29 09:16:14;;;;;;;14.48;7.32;;;3.20;99.90;;;;;;4927639;28;90749;-75
2023/11/29 09:18:39;;;;;;;13.07;7.07;;;3.10;99.90;;;;;;4928001;28;90292;-75
2023/11/29 09:21:05;;;;;;;14.45;6.43;;;3.10;99.90;;;;;;4926870;28;91693;-75
2023/11/29 09:23:33;;;;;;;17.10;6.93;;;3.10;99.90;;;;;;4928023;28;88931;-75
2023/11/29 09:25:59;;;;;;;21.55;7.35;;;3.10;99.90;;;;;;4926603;28;89521;-75
2023/11/29 09:28:25;;;;;;;13.95;6.80;;;3.10;99.90;;;;;;4925261;28;90373;-75
2023/11/29 09:30:50;;;;;;;20.15;7.65;;;3.10;99.90;;;;;;4944611;28;87774;-75
2023/11/29 09:33:16;;;;;;;14.77;7.55;;;3.10;99.90;;;;;;4945863;28;87496;-76
2023/11/29 09:35:42;;;;;;;14.65;7.53;;;3.20;99.90;;;;;;4934633;28;87847;-76
2023/11/29 09:38:10;;;;;;;28.50;8.95;;;3.20;99.90;;;;;;4914394;28;90093;-76
2023/11/29 09:40:36;;;;;;;16.77;8.52;;;3.20;99.90;;;;;;4923481;28;90376;-76
2023/11/29 09:43:01;;;;;;;16.75;7.80;;;3.40;99.90;;;;;;4925457;28;87983;-77
2023/11/29 09:45:27;;;;;;;23.38;8.25;;;3.40;99.90;;;;;;4945080;28;87985;-76
2023/11/29 09:47:54;;;;;;;20.88;8.70;;;3.50;99.90;;;;;;4945665;28;89488;-76
2023/11/29 09:50:21;;;;;;;20.35;8.35;;;3.50;99.90;;;;;;4945323;28;90000;-76
2023/11/29 09:52:47;;;;;;;16.60;8.55;;;3.60;99.90;;;;;;4928173;28;87977;-76
2023/11/29 09:55:14;;;;;;;28.45;9.00;;;3.70;99.90;;;;;;4946079;28;87938;-76
2023/11/29 09:57:40;;;;;;;23.80;9.23;;;3.70;99.90;;;;;;4946704;28;88681;-76
2023/11/29 10:00:09;;;;;;;24.17;8.40;;;3.70;99.90;;;;;;4946049;28;88312;-76
2023/11/29 10:02:38;;;;;;;18.60;6.82;;;3.80;99.90;;;;;;4927962;28;87809;-76
2023/11/29 10:05:04;;;;;;;13.48;6.70;;;3.80;99.90;;;;;;4927733;28;87568;-76
2023/11/29 10:07:29;;;;;;;17.92;6.70;;;3.80;99.90;;;;;;4926641;28;92509;-76
2023/11/29 10:10:05;;;;;;;13.45;6.50;;;3.90;99.90;;;;;;4926185;28;90308;-76
2023/11/29 10:12:30;;;;;;;12.68;5.72;;;3.90;99.90;;;;;;4925862;28;88749;-75
2023/11/29 10:14:56;;;;;;;17.25;6.43;;;3.90;99.90;;;;;;4925255;28;89570;-76
2023/11/29 10:17:22;;;;;;;13.52;6.38;;;4.00;99.90;;;;;;4945702;28;88770;-76
2023/11/29 10:19:47;;;;;;;14.38;6.18;;;4.00;99.90;;;;;;4947327;28;88059;-76
2023/11/29 10:22:17;;;;;;;18.33;7.65;;;4.00;99.90;;;;;;4927948;28;87618;-76
2023/11/29 10:24:43;;;;;;;18.25;6.38;;;4.10;99.90;;;;;;4946052;28;87441;-76
2023/11/29 10:27:10;;;;;;;13.70;6.65;;;4.10;99.90;;;;;;4926028;28;91573;-76
2023/11/29 10:29:36;;;;;;;14.93;8.10;;;4.10;99.90;;;;;;4947045;28;88712;-76
2023/11/29 10:32:06;;;;;;;13.50;7.28;;;4.20;99.90;;;;;;4946049;28;87178;-75
2023/11/29 10:34:34;;;;;;;14.48;7.57;;;4.20;99.90;;;;;;4927453;28;90914;-76
2023/11/29 10:37:02;;;;;;;14.68;6.50;;;4.20;99.90;;;;;;4926225;28;92103;-77
2023/11/29 10:39:30;;;;;;;14.82;6.57;;;4.20;99.90;;;;;;4926355;28;91929;-76
2023/11/29 10:41:57;;;;;;;72.90;13.85;;;4.30;99.90;;;;;;4928025;28;87519;-76
2023/11/29 10:44:47;;;;;;;16.67;6.22;;;4.30;99.90;;;;;;4928681;28;90768;-75
2023/11/29 10:47:22;;;;;;;14.00;6.05;;;4.30;99.90;;;;;;4945457;28;93632;-76
2023/11/29 10:49:53;;;;;;;11.48;4.82;;;4.30;99.90;;;;;;4926352;28;91373;-76
2023/11/29 10:52:19;;;;;;;11.30;5.00;;;4.20;99.90;;;;;;4945795;28;87640;-76
2023/11/29 10:54:49;;;;;;;10.13;4.82;;;4.30;99.90;;;;;;4944917;28;88076;-76
2023/11/29 10:57:21;;;;;;;12.57;5.35;;;4.30;99.90;;;;;;4927994;28;91641;-76
2023/11/29 10:59:56;;;;;;;15.63;4.88;;;4.30;99.90;;;;;;4943638;28;87601;-76
2023/11/29 11:02:23;;;;;;;15.63;5.70;;;4.30;99.90;;;;;;4927647;28;89015;-75
2023/11/29 11:05:08;;;;;;;16.23;5.53;;;4.40;99.90;;;;;;4946747;28;87792;-76
2023/11/29 11:07:47;;;;;;;13.98;5.13;;;4.50;99.90;;;;;;4928291;28;92397;-76
2023/11/29 11:10:15;;;;;;;10.25;5.45;;;4.50;99.90;;;;;;4928746;28;91776;-76
2023/11/29 11:12:42;;;;;;;9.98;5.45;;;4.60;99.90;;;;;;4927642;28;87635;-76
2023/11/29 11:15:15;;;;;;;14.85;5.85;;;4.70;99.90;;;;;;4950398;28;88239;-76
2023/11/29 11:17:45;;;;;;;12.18;6.53;;;4.80;99.90;;;;;;4950386;28;88439;-76
2023/11/29 11:20:11;;;;;;;12.38;5.78;;;4.90;99.90;;;;;;4931701;28;92470;-75
2023/11/29 11:22:42;;;;;;;9.98;4.93;;;4.90;99.90;;;;;;4948530;28;87545;-76
2023/11/29 11:25:12;;;;;;;13.82;4.90;;;4.90;99.90;;;;;;4931140;28;90053;-76
2023/11/29 11:27:47;;;;;;;7.97;4.57;;;5.00;99.90;;;;;;4929271;28;92311;-76
2023/11/29 11:30:18;;;;;;;12.70;5.28;;;5.00;99.90;;;;;;4948081;28;88752;-76
2023/11/29 11:33:01;;;;;;;17.42;4.82;;;5.10;99.90;;;;;;4933180;28;87777;-76
2023/11/29 11:35:36;;;;;;;6.70;4.03;;;5.10;99.90;;;;;;4929515;28;94290;-76
2023/11/29 11:38:06;;;;;;;8.65;3.80;;;5.10;99.90;;;;;;4940173;28;88139;-75
2023/11/29 11:40:34;;;;;;;10.20;4.10;;;5.00;99.90;;;;;;4916533;28;91871;-76
2023/11/29 11:43:01;;;;;;;6.40;3.05;;;5.00;99.90;;;;;;4919843;28;87694;-76
2023/11/29 11:45:29;;;;;;;5.63;3.13;;;5.00;99.90;;;;;;4926181;28;89521;-76
2023/11/29 11:47:56;;;;;;;12.05;3.88;;;5.00;99.90;;;;;;4944143;28;90140;-76
2023/11/29 11:50:22;;;;;;;7.88;3.28;;;5.00;99.90;;;;;;4930586;28;90933;-76
2023/11/29 11:52:47;;;;;;;14.18;5.13;;;5.10;99.90;;;;;;4930097;28;88943;-76
2023/11/29 11:55:17;;;;;;;9.95;3.80;;;5.10;99.90;;;;;;4929526;28;90771;-76
2023/11/29 11:57:44;;;;;;;8.65;3.42;;;5.10;99.90;;;;;;4931113;28;92192;-76
2023/11/29 12:00:12;;;;;;;9.48;3.75;;;5.10;99.90;;;;;;4930602;28;91595;-76
2023/11/29 12:02:39;;;;;;;6.75;2.83;;;5.10;99.90;;;;;;4929660;28;87911;-76
2023/11/29 12:05:06;;;;;;;12.48;3.97;;;5.10;99.90;;;;;;4929590;28;90880;-76
2023/11/29 12:07:32;;;;;;;12.50;5.00;;;5.00;99.90;;;;;;4928308;28;91660;-76
2023/11/29 12:09:59;;;;;;;11.85;4.90;;;5.10;99.90;;;;;;4919216;28;91646;-78
2023/11/29 12:12:30;;;;;;;6.75;3.80;;;5.10;99.90;;;;;;4927914;28;87905;-79
2023/11/29 12:14:56;;;;;;;10.13;4.07;;;5.10;99.90;;;;;;4928129;28;90434;-76
2023/11/29 12:17:22;;;;;;;9.05;3.70;;;5.20;99.90;;;;;;4946504;28;90115;-78
2023/11/29 12:19:50;;;;;;;9.02;3.75;;;5.20;99.90;;;;;;4946445;28;89799;-76
2023/11/29 12:22:17;;;;;;;8.82;3.92;;;5.30;99.90;;;;;;4927973;28;87781;-78
2023/11/29 12:24:47;;;;;;;12.88;4.93;;;5.30;99.90;;;;;;4929690;28;90602;-78
2023/11/29 12:27:18;;;;;;;9.82;4.30;;;5.30;99.90;;;;;;4929123;28;91731;-78
2023/11/29 12:29:48;;;;;;;8.38;3.30;;;5.40;99.90;;;;;;4930853;28;91259;-76
2023/11/29 12:32:15;;;;;;;9.45;4.00;;;5.40;99.90;;;;;;4930583;28;88579;-77
2023/11/29 12:34:42;;;;;;;9.88;4.30;;;5.50;99.90;;;;;;4929508;28;89882;-75
2023/11/29 12:37:15;;;;;;;9.05;4.13;;;5.50;99.90;;;;;;4946797;28;88483;-75
2023/11/29 12:39:42;;;;;;;12.13;4.05;;;5.50;99.90;;;;;;4927765;28;91770;-75